Friday Harbor, Washington
Current Conditions -  °F | °C
As of 12:53 PM on Sunday 21 Dec 2014 (Local Time) from KFHR Reporting Station
Clear Clear  
Wind Chill: 51°   Ceiling: Unl
Heat Index: 51°   Visibility: 10mi
Dew Point: 46°   Wind: 9mph
Humidity: 83%   Direction: 200°SSW
Pressure: 29.94"   Gusts: NA
Location:  48.53°N, 123.02°W
Report Text: KFHR 212053Z AUTO 20008KT 170V230 10SM CLR 11/08 A2994 RMK AO2 SLP140 60001 T01060078 53015
Loading
Personal Weather Stations






























Interactive Weather Map New forecast layout! Learn more

10-Day Weather Forecast

Advertisements
Track Severe Weather on mobile